Accueil
METAR-TAF:

METAR-TAF

Aéroports :

Aéroport de Mannheim

Mannheim, Allemagne

latitude: 49-28-21N, longitude: 008-30-56E, altitude: 100 m

Observation

Le bulletin a été fait il y a 38 minutes, à 06:20 UTC
Vent 3 kt de nord/nord-ouest, variant entre ouest/nord-ouest et nord
Température 20°C
Humidité 73%
Pression 1022 hPa
Visibilité 10 km ou plus
pas de nuages en-dessous de 1500 mètres et pas de cumulonimbus.

METAR: EDFM 180620Z 34003KT 300V010 CAVOK 20/15 Q1022

Heure: 08:58 (06:58 UTC)

Prévision

Le bulletin a été fait il y a 1 heure et 58 minutes, à 05:00 UTC
Prévision valable du 18 à 06 UTC au 18 à 15 UTC
Vent 3 kt de direction variable
Visibilité 10 km ou plus
pas de nuages en-dessous de 1500 mètres et pas de cumulonimbus.
Evoluant progressivement
du 18 à 08 UTC au 18 à 11 UTC
Vent 5 kt de nord-est

TAF: EDFM 180500Z 1806/1815 VRB03KT CAVOK BECMG 1808/1811 04005KT

Observations et prévisions météorologiques de plus de 4000 aéroports (messages METAR et TAF).

Les stations disponibles sont représentées par des disques jaunes et rouges sur la carte.

Passer la souris dessus pour voir le nom de la station.

Cliquer dessus pour voir les observations et prévisions météorologiques.

Pour changer de carte: cliquez sur les boutons verts avec une croix noire pour zoomer, sur le bouton vert avec un tiret pour effectuer un zoom arrière, ou sur les flèches vertes pour les cartes adjacentes.


METAR-TAF: